KOUN

University of Oklahoma Westheimer Airport

Norman, Oklahoma, USA
KOUN 231720Z 2318/2418 36011G16KT P6SM SCT035 FM240000 05002KT P6SM FEW250
Issued Valid From Valid To
Apr-23 @ 17:20 UTC
(6 hours ago)
Apr-23 @ 18:00 UTC
(5 hours ago)
Apr-24 @ 18:00 UTC
(in 19 hours)
Apr-23 @ 18:00 to Apr-24 @ 00:00
KOUN 231720Z 2318/2418 36011G16KT P6SM SCT035
Wind Visibility Clouds
360° at 11 knots
 Gusting to 16 knots
Greater than 6 miles
  • Scattered at 3,500' AGL
From Apr-24 @ 00:00 to Apr-24 @ 18:00
FM240000 05002KT P6SM FEW250
Wind Visibility Clouds
50° at 2 knots Greater than 6 miles
  • Few at 25,000' AGL
KOUN 231720Z 2318/2418 36011G16KT P6SM SCT035 FM240000 05002KT P6SM FEW250
Issued Apr-23 @ 17:20 UTC
(6 hours ago)
Valid From Apr-23 @ 18:00 UTC
(5 hours ago)
Valid To Apr-24 @ 18:00 UTC
(in 19 hours)
Apr-23 @ 18:00 - Apr-24 @ 00:00
Wind Visibility
360° at 11 knots
 Gusting to 16 knots
Greater than 6 miles
Clouds
  • Scattered at 3,500' AGL
From Apr-24 @ 00:00 - Apr-24 @ 18:00
Wind Visibility
50° at 2 knots Greater than 6 miles
Clouds
  • Few at 25,000' AGL